sensor_id;sensor_type;location;lat;lon;timestamp;pressure;altitude;pressure_sealevel;temperature;humidity
10060;BME280;5069;49.306;8.636;2023-04-23T00:03:05;99865.75;;;14.39;100.00
10060;BME280;5069;49.306;8.636;2023-04-23T00:06:10;99866.69;;;14.38;100.00
10060;BME280;5069;49.306;8.636;2023-04-23T00:09:14;99864.34;;;14.32;100.00
10060;BME280;5069;49.306;8.636;2023-04-23T00:12:17;99867.53;;;14.23;100.00
10060;BME280;5069;49.306;8.636;2023-04-23T00:15:18;99873.78;;;14.22;100.00
10060;BME280;5069;49.306;8.636;2023-04-23T00:18:22;99871.28;;;14.19;100.00
10060;BME280;5069;49.306;8.636;2023-04-23T00:21:23;99873.09;;;14.19;100.00
10060;BME280;5069;49.306;8.636;2023-04-23T00:24:25;99880.88;;;14.22;100.00
10060;BME280;5069;49.306;8.636;2023-04-23T00:27:26;99872.94;;;14.22;100.00
10060;BME280;5069;49.306;8.636;2023-04-23T00:30:29;99878.91;;;14.25;100.00
10060;BME280;5069;49.306;8.636;2023-04-23T00:33:30;99871.28;;;14.19;100.00
10060;BME280;5069;49.306;8.636;2023-04-23T00:36:31;99881.38;;;14.13;100.00
10060;BME280;5069;49.306;8.636;2023-04-23T00:39:33;99878.25;;;14.06;100.00
10060;BME280;5069;49.306;8.636;2023-04-23T00:42:37;99882.16;;;13.99;100.00
10060;BME280;5069;49.306;8.636;2023-04-23T00:45:39;99879.84;;;13.93;100.00
10060;BME280;5069;49.306;8.636;2023-04-23T00:48:40;99874.63;;;13.91;100.00
10060;BME280;5069;49.306;8.636;2023-04-23T00:51:42;99880.97;;;13.89;100.00
10060;BME280;5069;49.306;8.636;2023-04-23T00:54:43;99876.69;;;13.86;100.00
10060;BME280;5069;49.306;8.636;2023-04-23T00:57:44;99877.53;;;13.87;100.00
10060;BME280;5069;49.306;8.636;2023-04-23T01:00:46;99876.00;;;13.83;100.00
10060;BME280;5069;49.306;8.636;2023-04-23T01:03:50;99877.88;;;13.81;100.00
10060;BME280;5069;49.306;8.636;2023-04-23T01:06:54;99879.00;;;13.77;100.00
10060;BME280;5069;49.306;8.636;2023-04-23T01:09:56;99876.16;;;13.80;100.00
10060;BME280;5069;49.306;8.636;2023-04-23T01:12:58;99885.22;;;13.76;100.00
10060;BME280;5069;49.306;8.636;2023-04-23T01:16:00;99877.34;;;13.74;100.00
10060;BME280;5069;49.306;8.636;2023-04-23T01:19:02;99881.78;;;13.74;100.00
10060;BME280;5069;49.306;8.636;2023-04-23T01:22:09;99884.22;;;13.78;100.00
10060;BME280;5069;49.306;8.636;2023-04-23T01:25:10;99886.34;;;13.72;100.00
10060;BME280;5069;49.306;8.636;2023-04-23T01:28:12;99882.13;;;13.68;100.00
10060;BME280;5069;49.306;8.636;2023-04-23T01:31:15;99884.69;;;13.69;100.00
10060;BME280;5069;49.306;8.636;2023-04-23T01:34:17;99880.94;;;13.57;100.00
10060;BME280;5069;49.306;8.636;2023-04-23T01:37:20;99893.91;;;13.62;100.00
10060;BME280;5069;49.306;8.636;2023-04-23T01:40:21;99887.69;;;13.63;100.00
10060;BME280;5069;49.306;8.636;2023-04-23T01:43:23;99888.53;;;13.63;100.00
10060;BME280;5069;49.306;8.636;2023-04-23T01:46:25;99894.78;;;13.62;100.00
10060;BME280;5069;49.306;8.636;2023-04-23T01:49:27;99894.69;;;13.64;100.00
10060;BME280;5069;49.306;8.636;2023-04-23T01:52:28;99893.91;;;13.62;100.00
10060;BME280;5069;49.306;8.636;2023-04-23T01:55:30;99897.28;;;13.65;100.00
10060;BME280;5069;49.306;8.636;2023-04-23T01:58:32;99891.88;;;13.67;100.00
10060;BME280;5069;49.306;8.636;2023-04-23T02:01:46;99892.97;;;13.63;100.00
10060;BME280;5069;49.306;8.636;2023-04-23T02:04:48;99906.94;;;13.67;100.00
10060;BME280;5069;49.306;8.636;2023-04-23T02:07:51;99906.22;;;13.63;100.00
10060;BME280;5069;49.306;8.636;2023-04-23T02:10:53;99902.28;;;13.54;100.00
10060;BME280;5069;49.306;8.636;2023-04-23T02:13:54;99904.06;;;13.54;100.00
10060;BME280;5069;49.306;8.636;2023-04-23T02:16:56;99908.44;;;13.55;100.00
10060;BME280;5069;49.306;8.636;2023-04-23T02:19:58;99907.59;;;13.54;100.00
10060;BME280;5069;49.306;8.636;2023-04-23T02:22:59;99904.94;;;13.54;100.00
10060;BME280;5069;49.306;8.636;2023-04-23T02:26:01;99904.34;;;13.49;100.00
10060;BME280;5069;49.306;8.636;2023-04-23T02:29:02;99909.94;;;13.43;100.00
10060;BME280;5069;49.306;8.636;2023-04-23T02:32:04;99906.34;;;13.44;100.00
10060;BME280;5069;49.306;8.636;2023-04-23T02:35:06;99907.72;;;13.51;100.00
10060;BME280;5069;49.306;8.636;2023-04-23T02:38:09;99906.19;;;13.47;100.00
10060;BME280;5069;49.306;8.636;2023-04-23T02:41:10;99900.22;;;13.44;100.00
10060;BME280;5069;49.306;8.636;2023-04-23T02:44:12;99902.00;;;13.43;100.00
10060;BME280;5069;49.306;8.636;2023-04-23T02:47:13;99910.28;;;13.37;100.00
10060;BME280;5069;49.306;8.636;2023-04-23T02:50:16;99908.81;;;13.32;100.00
10060;BME280;5069;49.306;8.636;2023-04-23T02:53:17;99913.06;;;13.34;100.00
10060;BME280;5069;49.306;8.636;2023-04-23T02:56:19;99912.06;;;13.37;100.00
10060;BME280;5069;49.306;8.636;2023-04-23T02:59:21;99914.63;;;13.38;100.00
10060;BME280;5069;49.306;8.636;2023-04-23T03:02:22;99908.69;;;13.33;100.00
10060;BME280;5069;49.306;8.636;2023-04-23T03:05:24;99900.84;;;13.32;100.00
10060;BME280;5069;49.306;8.636;2023-04-23T03:08:26;99901.94;;;13.28;100.00
10060;BME280;5069;49.306;8.636;2023-04-23T03:11:28;99903.56;;;13.30;100.00
10060;BME280;5069;49.306;8.636;2023-04-23T03:14:30;99902.44;;;13.18;100.00
10060;BME280;5069;49.306;8.636;2023-04-23T03:17:32;99895.16;;;13.22;100.00
10060;BME280;5069;49.306;8.636;2023-04-23T03:20:34;99896.13;;;13.21;100.00
10060;BME280;5069;49.306;8.636;2023-04-23T03:23:36;99902.19;;;13.23;100.00
10060;BME280;5069;49.306;8.636;2023-04-23T03:26:37;99899.22;;;13.12;100.00
10060;BME280;5069;49.306;8.636;2023-04-23T03:29:39;99900.31;;;13.08;100.00
10060;BME280;5069;49.306;8.636;2023-04-23T03:32:41;99901.09;;;13.10;100.00
10060;BME280;5069;49.306;8.636;2023-04-23T03:35:44;99900.38;;;13.06;100.00
10060;BME280;5069;49.306;8.636;2023-04-23T03:38:50;99907.00;;;12.98;100.00
10060;BME280;5069;49.306;8.636;2023-04-23T03:41:52;99900.84;;;12.97;100.00
10060;BME280;5069;49.306;8.636;2023-04-23T03:44:59;99908.88;;;12.96;100.00
10060;BME280;5069;49.306;8.636;2023-04-23T03:48:01;99907.63;;;12.86;100.00
10060;BME280;5069;49.306;8.636;2023-04-23T03:51:03;99907.63;;;12.86;100.00
10060;BME280;5069;49.306;8.636;2023-04-23T03:54:15;99899.06;;;12.80;100.00
10060;BME280;5069;49.306;8.636;2023-04-23T03:57:37;99913.06;;;12.82;100.00
10060;BME280;5069;49.306;8.636;2023-04-23T04:00:58;99913.91;;;12.83;100.00
10060;BME280;5069;49.306;8.636;2023-04-23T04:04:00;99919.06;;;12.86;100.00
10060;BME280;5069;49.306;8.636;2023-04-23T04:07:04;99905.75;;;12.88;100.00
10060;BME280;5069;49.306;8.636;2023-04-23T04:10:08;99912.91;;;12.86;100.00
10060;BME280;5069;49.306;8.636;2023-04-23T04:13:09;99911.88;;;12.88;100.00
10060;BME280;5069;49.306;8.636;2023-04-23T04:16:11;99916.63;;;12.81;100.00
10060;BME280;5069;49.306;8.636;2023-04-23T04:19:12;99919.50;;;12.77;100.00
10060;BME280;5069;49.306;8.636;2023-04-23T04:22:14;99915.09;;;12.77;100.00
10060;BME280;5069;49.306;8.636;2023-04-23T04:25:16;99920.38;;;12.77;100.00
10060;BME280;5069;49.306;8.636;2023-04-23T04:28:17;99921.28;;;12.76;100.00
10060;BME280;5069;49.306;8.636;2023-04-23T04:31:19;99928.06;;;12.82;100.00
10060;BME280;5069;49.306;8.636;2023-04-23T04:34:22;99924.72;;;12.78;100.00
10060;BME280;5069;49.306;8.636;2023-04-23T04:37:23;99918.66;;;12.76;100.00
10060;BME280;5069;49.306;8.636;2023-04-23T04:40:25;99918.75;;;12.75;100.00
10060;BME280;5069;49.306;8.636;2023-04-23T04:43:28;99915.38;;;12.71;100.00
10060;BME280;5069;49.306;8.636;2023-04-23T04:46:30;99910.81;;;12.75;100.00
10060;BME280;5069;49.306;8.636;2023-04-23T04:49:32;99907.31;;;12.74;100.00
10060;BME280;5069;49.306;8.636;2023-04-23T04:52:34;99913.53;;;12.73;100.00
10060;BME280;5069;49.306;8.636;2023-04-23T04:55:35;99910.81;;;12.75;100.00
10060;BME280;5069;49.306;8.636;2023-04-23T04:58:37;99919.22;;;12.83;100.00
10060;BME280;5069;49.306;8.636;2023-04-23T05:01:38;99928.78;;;12.86;100.00
10060;BME280;5069;49.306;8.636;2023-04-23T05:04:40;99925.34;;;12.83;100.00
10060;BME280;5069;49.306;8.636;2023-04-23T05:07:42;99926.91;;;12.88;100.00
10060;BME280;5069;49.306;8.636;2023-04-23T05:10:43;99919.81;;;12.88;100.00
10060;BME280;5069;49.306;8.636;2023-04-23T05:13:46;99925.91;;;12.90;100.00
10060;BME280;5069;49.306;8.636;2023-04-23T05:16:48;99929.41;;;12.91;100.00
10060;BME280;5069;49.306;8.636;2023-04-23T05:19:49;99928.78;;;12.86;100.00
10060;BME280;5069;49.306;8.636;2023-04-23T05:22:51;99933.47;;;12.80;100.00
10060;BME280;5069;49.306;8.636;2023-04-23T05:25:52;99928.94;;;12.82;100.00
10060;BME280;5069;49.306;8.636;2023-04-23T05:28:56;99929.84;;;12.81;100.00
10060;BME280;5069;49.306;8.636;2023-04-23T05:31:57;99932.38;;;12.84;100.00
10060;BME280;5069;49.306;8.636;2023-04-23T05:35:00;99930.34;;;12.90;100.00
10060;BME280;5069;49.306;8.636;2023-04-23T05:38:03;99931.19;;;12.90;100.00
10060;BME280;5069;49.306;8.636;2023-04-23T05:41:06;99944.91;;;12.98;100.00
10060;BME280;5069;49.306;8.636;2023-04-23T05:44:07;99935.69;;;13.05;100.00
10060;BME280;5069;49.306;8.636;2023-04-23T05:47:10;99931.72;;;13.15;100.00
10060;BME280;5069;49.306;8.636;2023-04-23T05:50:11;99930.69;;;13.18;100.00
10060;BME280;5069;49.306;8.636;2023-04-23T05:53:13;99922.44;;;13.24;100.00
10060;BME280;5069;49.306;8.636;2023-04-23T05:56:14;99918.78;;;13.27;100.00
10060;BME280;5069;49.306;8.636;2023-04-23T05:59:16;99919.47;;;13.30;100.00
10060;BME280;5069;49.306;8.636;2023-04-23T06:02:18;99931.91;;;13.28;100.00
10060;BME280;5069;49.306;8.636;2023-04-23T06:05:21;99921.31;;;13.28;100.00
10060;BME280;5069;49.306;8.636;2023-04-23T06:08:23;99931.75;;;13.31;100.00
10060;BME280;5069;49.306;8.636;2023-04-23T06:11:26;99929.56;;;13.39;100.00
10060;BME280;5069;49.306;8.636;2023-04-23T06:14:27;99934.63;;;13.44;100.00
10060;BME280;5069;49.306;8.636;2023-04-23T06:17:29;99927.38;;;13.47;100.00
10060;BME280;5069;49.306;8.636;2023-04-23T06:20:31;99930.63;;;13.52;100.00
10060;BME280;5069;49.306;8.636;2023-04-23T06:23:33;99925.19;;;13.55;100.00
10060;BME280;5069;49.306;8.636;2023-04-23T06:26:34;99917.38;;;13.52;100.00
10060;BME280;5069;49.306;8.636;2023-04-23T06:29:44;99922.63;;;13.54;100.00
10060;BME280;5069;49.306;8.636;2023-04-23T06:32:46;99920.91;;;13.53;100.00
10060;BME280;5069;49.306;8.636;2023-04-23T06:35:48;99918.19;;;13.54;100.00
10060;BME280;5069;49.306;8.636;2023-04-23T06:38:50;99920.31;;;13.63;100.00
10060;BME280;5069;49.306;8.636;2023-04-23T06:41:51;99918.88;;;13.74;100.00
10060;BME280;5069;49.306;8.636;2023-04-23T06:44:56;99918.94;;;13.89;100.00
10060;BME280;5069;49.306;8.636;2023-04-23T06:47:59;99918.47;;;13.97;100.00
10060;BME280;5069;49.306;8.636;2023-04-23T06:51:01;99910.81;;;14.24;100.00
10060;BME280;5069;49.306;8.636;2023-04-23T06:54:03;99913.13;;;14.45;100.00
10060;BME280;5069;49.306;8.636;2023-04-23T06:57:04;99916.22;;;14.38;100.00
10060;BME280;5069;49.306;8.636;2023-04-23T07:00:07;99910.88;;;14.54;100.00
10060;BME280;5069;49.306;8.636;2023-04-23T07:03:14;99918.00;;;14.37;100.00
10060;BME280;5069;49.306;8.636;2023-04-23T07:06:16;99913.63;;;14.36;100.00
10060;BME280;5069;49.306;8.636;2023-04-23T07:09:17;99911.44;;;14.44;100.00
10060;BME280;5069;49.306;8.636;2023-04-23T07:12:19;99901.06;;;14.56;100.00
10060;BME280;5069;49.306;8.636;2023-04-23T07:15:20;99911.22;;;14.63;100.00
10060;BME280;5069;49.306;8.636;2023-04-23T07:18:22;99899.06;;;14.59;100.00
10060;BME280;5069;49.306;8.636;2023-04-23T07:21:23;99893.97;;;14.86;100.00
10060;BME280;5069;49.306;8.636;2023-04-23T07:24:27;99883.22;;;15.03;100.00
10060;BME280;5069;49.306;8.636;2023-04-23T07:27:29;99885.91;;;15.32;100.00
10060;BME280;5069;49.306;8.636;2023-04-23T07:30:30;99888.75;;;15.43;100.00
10060;BME280;5069;49.306;8.636;2023-04-23T07:33:32;99881.22;;;15.49;100.00
10060;BME280;5069;49.306;8.636;2023-04-23T07:36:33;99885.16;;;15.72;100.00
10060;BME280;5069;49.306;8.636;2023-04-23T07:39:35;99877.47;;;15.67;100.00
10060;BME280;5069;49.306;8.636;2023-04-23T07:42:36;99875.56;;;15.84;100.00
10060;BME280;5069;49.306;8.636;2023-04-23T07:45:38;99865.78;;;15.84;100.00
10060;BME280;5069;49.306;8.636;2023-04-23T07:48:39;99869.75;;;16.05;100.00
10060;BME280;5069;49.306;8.636;2023-04-23T07:51:42;99873.59;;;16.14;100.00
10060;BME280;5069;49.306;8.636;2023-04-23T07:54:43;99869.06;;;16.02;100.00
10060;BME280;5069;49.306;8.636;2023-04-23T07:57:46;99869.47;;;15.96;100.00
10060;BME280;5069;49.306;8.636;2023-04-23T08:00:47;99866.38;;;15.75;100.00
10060;BME280;5069;49.306;8.636;2023-04-23T08:03:49;99867.88;;;15.79;100.00
10060;BME280;5069;49.306;8.636;2023-04-23T08:06:51;99873.22;;;15.65;96.96
10060;BME280;5069;49.306;8.636;2023-04-23T08:09:52;99867.06;;;15.64;100.00
10060;BME280;5069;49.306;8.636;2023-04-23T08:12:54;99859.53;;;15.43;97.36
10060;BME280;5069;49.306;8.636;2023-04-23T08:15:55;99859.63;;;15.55;99.95
10060;BME280;5069;49.306;8.636;2023-04-23T08:18:57;99855.34;;;15.67;99.97
10060;BME280;5069;49.306;8.636;2023-04-23T08:22:04;99855.56;;;15.64;93.29
10060;BME280;5069;49.306;8.636;2023-04-23T08:25:06;99851.97;;;15.65;92.83
10060;BME280;5069;49.306;8.636;2023-04-23T08:28:08;99852.22;;;15.89;89.85
10060;BME280;5069;49.306;8.636;2023-04-23T08:31:09;99844.19;;;16.03;87.84
10060;BME280;5069;49.306;8.636;2023-04-23T08:34:26;99843.34;;;16.02;87.67
10060;BME280;5069;49.306;8.636;2023-04-23T08:37:27;99837.28;;;16.00;86.96
10060;BME280;5069;49.306;8.636;2023-04-23T08:40:34;99837.84;;;16.05;86.15
10060;BME280;5069;49.306;8.636;2023-04-23T08:43:45;99837.28;;;16.00;85.83
10060;BME280;5069;49.306;8.636;2023-04-23T08:46:48;99836.91;;;15.92;86.13
10060;BME280;5069;49.306;8.636;2023-04-23T08:49:53;99842.94;;;16.08;85.21
10060;BME280;5069;49.306;8.636;2023-04-23T08:52:56;99838.72;;;16.19;82.37
10060;BME280;5069;49.306;8.636;2023-04-23T08:55:58;99826.25;;;16.33;81.31
10060;BME280;5069;49.306;8.636;2023-04-23T08:59:00;99830.13;;;16.54;74.45
10060;BME280;5069;49.306;8.636;2023-04-23T09:02:04;99831.38;;;16.76;77.85
10060;BME280;5069;49.306;8.636;2023-04-23T09:05:10;99826.00;;;17.03;76.32
10060;BME280;5069;49.306;8.636;2023-04-23T09:08:12;99830.88;;;17.21;76.94
10060;BME280;5069;49.306;8.636;2023-04-23T09:11:14;99825.34;;;17.37;73.36
10060;BME280;5069;49.306;8.636;2023-04-23T09:14:15;99819.78;;;17.65;73.44
10060;BME280;5069;49.306;8.636;2023-04-23T09:17:17;99818.69;;;17.55;67.56
10060;BME280;5069;49.306;8.636;2023-04-23T09:20:19;99818.28;;;17.61;68.60
10060;BME280;5069;49.306;8.636;2023-04-23T09:23:22;99816.69;;;17.95;69.93
10060;BME280;5069;49.306;8.636;2023-04-23T09:26:23;99799.31;;;17.90;65.58
10060;BME280;5069;49.306;8.636;2023-04-23T09:29:25;99803.66;;;18.03;65.65
10060;BME280;5069;49.306;8.636;2023-04-23T09:32:31;99784.06;;;17.92;67.40
10060;BME280;5069;49.306;8.636;2023-04-23T09:35:33;99784.44;;;18.11;67.08
10060;BME280;5069;49.306;8.636;2023-04-23T09:38:36;99775.72;;;18.20;65.34
10060;BME280;5069;49.306;8.636;2023-04-23T09:41:40;99771.41;;;18.30;64.87
10060;BME280;5069;49.306;8.636;2023-04-23T09:44:42;99766.84;;;18.43;64.31
10060;BME280;5069;49.306;8.636;2023-04-23T09:47:51;99762.84;;;18.73;62.98
10060;BME280;5069;49.306;8.636;2023-04-23T09:50:53;99766.88;;;18.89;61.87
10060;BME280;5069;49.306;8.636;2023-04-23T09:53:56;99762.31;;;18.56;61.93
10060;BME280;5069;49.306;8.636;2023-04-23T09:56:58;99762.22;;;18.69;62.33
10060;BME280;5069;49.306;8.636;2023-04-23T10:00:14;99759.81;;;18.77;62.92
10060;BME280;5069;49.306;8.636;2023-04-23T10:03:25;99756.53;;;18.74;62.21
10060;BME280;5069;49.306;8.636;2023-04-23T10:06:28;99749.31;;;18.63;62.05
10060;BME280;5069;49.306;8.636;2023-04-23T10:09:50;99749.16;;;18.53;61.75
10060;BME280;5069;49.306;8.636;2023-04-23T10:12:52;99744.06;;;18.50;62.36
10060;BME280;5069;49.306;8.636;2023-04-23T10:15:58;99735.78;;;18.42;61.38
10060;BME280;5069;49.306;8.636;2023-04-23T10:19:22;99732.59;;;18.26;61.55
10060;BME280;5069;49.306;8.636;2023-04-23T10:22:29;99735.50;;;18.34;62.00
10060;BME280;5069;49.306;8.636;2023-04-23T10:25:31;99726.06;;;18.41;59.14
10060;BME280;5069;49.306;8.636;2023-04-23T10:28:34;99719.38;;;18.36;58.79
10060;BME280;5069;49.306;8.636;2023-04-23T10:31:37;99706.94;;;18.47;59.85
10060;BME280;5069;49.306;8.636;2023-04-23T10:34:39;99708.09;;;18.67;57.44
10060;BME280;5069;49.306;8.636;2023-04-23T10:37:43;99705.59;;;18.53;55.83
10060;BME280;5069;49.306;8.636;2023-04-23T10:40:49;99699.94;;;18.69;54.60
10060;BME280;5069;49.306;8.636;2023-04-23T10:43:52;99695.84;;;18.76;54.38
10060;BME280;5069;49.306;8.636;2023-04-23T10:46:56;99695.38;;;18.82;53.71
10060;BME280;5069;49.306;8.636;2023-04-23T10:50:26;99690.97;;;18.70;52.11
10060;BME280;5069;49.306;8.636;2023-04-23T10:53:30;99694.88;;;18.77;53.99
10060;BME280;5069;49.306;8.636;2023-04-23T10:56:31;99686.97;;;18.86;53.93
10060;BME280;5069;49.306;8.636;2023-04-23T10:59:34;99682.28;;;19.01;53.13
10060;BME280;5069;49.306;8.636;2023-04-23T11:02:42;99681.03;;;19.05;53.59
10060;BME280;5069;49.306;8.636;2023-04-23T11:05:47;99688.31;;;19.03;54.18
10060;BME280;5069;49.306;8.636;2023-04-23T11:08:53;99666.97;;;18.81;52.94
10060;BME280;5069;49.306;8.636;2023-04-23T11:11:55;99676.78;;;19.03;54.03
10060;BME280;5069;49.306;8.636;2023-04-23T11:14:58;99670.84;;;18.99;52.81
10060;BME280;5069;49.306;8.636;2023-04-23T11:18:00;99678.97;;;18.97;54.17
10060;BME280;5069;49.306;8.636;2023-04-23T11:21:03;99666.72;;;18.95;53.56
10060;BME280;5069;49.306;8.636;2023-04-23T11:24:06;99661.97;;;18.87;54.16
10060;BME280;5069;49.306;8.636;2023-04-23T11:27:09;99657.50;;;18.66;53.30
10060;BME280;5069;49.306;8.636;2023-04-23T11:30:12;99643.66;;;18.94;52.94
10060;BME280;5069;49.306;8.636;2023-04-23T11:33:15;99645.75;;;18.90;54.21
10060;BME280;5069;49.306;8.636;2023-04-23T11:36:17;99644.00;;;19.12;52.72
10060;BME280;5069;49.306;8.636;2023-04-23T11:39:20;99639.25;;;19.15;52.46
10060;BME280;5069;49.306;8.636;2023-04-23T11:42:21;99639.25;;;19.15;50.95
10060;BME280;5069;49.306;8.636;2023-04-23T11:45:25;99632.97;;;19.05;50.73
10060;BME280;5069;49.306;8.636;2023-04-23T11:48:26;99624.19;;;19.14;52.68
10060;BME280;5069;49.306;8.636;2023-04-23T11:51:28;99617.53;;;19.09;50.22
10060;BME280;5069;49.306;8.636;2023-04-23T11:54:30;99614.91;;;19.40;51.51
10060;BME280;5069;49.306;8.636;2023-04-23T11:57:36;99606.78;;;19.74;49.32
10060;BME280;5069;49.306;8.636;2023-04-23T12:00:41;99600.53;;;19.64;48.77
10060;BME280;5069;49.306;8.636;2023-04-23T12:03:47;99586.88;;;19.67;47.95
10060;BME280;5069;49.306;8.636;2023-04-23T12:06:51;99590.03;;;19.72;49.63
10060;BME280;5069;49.306;8.636;2023-04-23T12:09:57;99587.44;;;19.82;49.73
10060;BME280;5069;49.306;8.636;2023-04-23T12:12:59;99579.91;;;20.17;49.21
10060;BME280;5069;49.306;8.636;2023-04-23T12:16:02;99576.81;;;20.33;48.54
10060;BME280;5069;49.306;8.636;2023-04-23T12:19:07;99562.88;;;20.18;48.12
10060;BME280;5069;49.306;8.636;2023-04-23T12:22:09;99558.19;;;20.31;47.30
10060;BME280;5069;49.306;8.636;2023-04-23T12:25:10;99559.34;;;20.17;47.19
10060;BME280;5069;49.306;8.636;2023-04-23T12:28:12;99552.88;;;20.10;47.77
10060;BME280;5069;49.306;8.636;2023-04-23T12:31:25;99549.19;;;20.11;47.57
10060;BME280;5069;49.306;8.636;2023-04-23T12:34:28;99545.44;;;20.23;48.49
10060;BME280;5069;49.306;8.636;2023-04-23T12:37:34;99550.22;;;20.41;47.63
10060;BME280;5069;49.306;8.636;2023-04-23T12:40:36;99540.69;;;20.57;48.09
10060;BME280;5069;49.306;8.636;2023-04-23T12:43:38;99538.75;;;20.69;48.04
10060;BME280;5069;49.306;8.636;2023-04-23T12:46:39;99543.56;;;20.75;48.00
10060;BME280;5069;49.306;8.636;2023-04-23T12:49:41;99528.38;;;20.85;47.91
10060;BME280;5069;49.306;8.636;2023-04-23T12:52:43;99528.47;;;20.74;48.73
10060;BME280;5069;49.306;8.636;2023-04-23T12:55:45;99525.06;;;20.62;48.50
10060;BME280;5069;49.306;8.636;2023-04-23T12:58:46;99521.59;;;20.81;48.84
10060;BME280;5069;49.306;8.636;2023-04-23T13:01:49;99521.53;;;20.62;48.37
10060;BME280;5069;49.306;8.636;2023-04-23T13:04:51;99510.59;;;20.35;50.11
10060;BME280;5069;49.306;8.636;2023-04-23T13:07:54;99508.31;;;20.30;49.87
10060;BME280;5069;49.306;8.636;2023-04-23T13:10:56;99504.84;;;20.39;48.95
10060;BME280;5069;49.306;8.636;2023-04-23T13:13:57;99489.09;;;20.46;48.02
10060;BME280;5069;49.306;8.636;2023-04-23T13:16:59;99488.59;;;20.61;48.58
10060;BME280;5069;49.306;8.636;2023-04-23T13:20:01;99485.56;;;21.04;48.21
10060;BME280;5069;49.306;8.636;2023-04-23T13:23:02;99476.13;;;21.39;47.77
10060;BME280;5069;49.306;8.636;2023-04-23T13:26:04;99467.53;;;21.45;45.37
10060;BME280;5069;49.306;8.636;2023-04-23T13:29:08;99459.06;;;21.40;44.84
10060;BME280;5069;49.306;8.636;2023-04-23T13:32:10;99454.81;;;21.37;46.00
10060;BME280;5069;49.306;8.636;2023-04-23T13:35:12;99452.00;;;21.00;45.75
10060;BME280;5069;49.306;8.636;2023-04-23T13:38:15;99447.59;;;20.80;47.20
10060;BME280;5069;49.306;8.636;2023-04-23T13:41:16;99436.16;;;20.59;47.99
10060;BME280;5069;49.306;8.636;2023-04-23T13:44:18;99431.34;;;20.62;48.14
10060;BME280;5069;49.306;8.636;2023-04-23T13:47:19;99421.50;;;20.63;47.40
10060;BME280;5069;49.306;8.636;2023-04-23T13:50:21;99419.66;;;20.54;47.75
10060;BME280;5069;49.306;8.636;2023-04-23T13:53:23;99412.16;;;20.48;47.25
10060;BME280;5069;49.306;8.636;2023-04-23T13:56:28;99409.09;;;20.81;47.03
10060;BME280;5069;49.306;8.636;2023-04-23T13:59:30;99403.63;;;21.21;45.58
10060;BME280;5069;49.306;8.636;2023-04-23T14:02:32;99398.97;;;21.33;45.57
10060;BME280;5069;49.306;8.636;2023-04-23T14:05:34;99389.94;;;21.15;46.03
10060;BME280;5069;49.306;8.636;2023-04-23T14:08:36;99390.44;;;21.57;45.78
10060;BME280;5069;49.306;8.636;2023-04-23T14:11:38;99381.25;;;21.59;45.44
10060;BME280;5069;49.306;8.636;2023-04-23T14:14:41;99372.16;;;21.33;44.50
10060;BME280;5069;49.306;8.636;2023-04-23T14:17:43;99358.19;;;21.20;44.74
10060;BME280;5069;49.306;8.636;2023-04-23T14:20:46;99357.78;;;21.05;44.91
10060;BME280;5069;49.306;8.636;2023-04-23T14:23:54;99349.03;;;21.13;44.81
10060;BME280;5069;49.306;8.636;2023-04-23T14:26:56;99342.84;;;21.22;44.66
10060;BME280;5069;49.306;8.636;2023-04-23T14:30:01;99340.84;;;21.04;45.54
10060;BME280;5069;49.306;8.636;2023-04-23T14:33:05;99340.00;;;21.04;45.63
10060;BME280;5069;49.306;8.636;2023-04-23T14:36:11;99329.88;;;20.88;45.04
10060;BME280;5069;49.306;8.636;2023-04-23T14:39:13;99323.41;;;20.81;45.19
10060;BME280;5069;49.306;8.636;2023-04-23T14:42:16;99322.97;;;20.76;45.61
10060;BME280;5069;49.306;8.636;2023-04-23T14:45:17;99315.78;;;20.77;46.79
10060;BME280;5069;49.306;8.636;2023-04-23T14:48:19;99313.50;;;20.91;47.19
10060;BME280;5069;49.306;8.636;2023-04-23T14:51:20;99302.28;;;20.78;46.05
10060;BME280;5069;49.306;8.636;2023-04-23T14:54:23;99303.09;;;20.69;46.91
10060;BME280;5069;49.306;8.636;2023-04-23T14:57:24;99293.53;;;20.76;46.27
10060;BME280;5069;49.306;8.636;2023-04-23T15:00:26;99292.41;;;20.69;46.66
10060;BME280;5069;49.306;8.636;2023-04-23T15:03:30;99289.84;;;20.68;46.90
10060;BME280;5069;49.306;8.636;2023-04-23T15:06:32;99288.34;;;20.55;47.06
10060;BME280;5069;49.306;8.636;2023-04-23T15:09:33;99286.06;;;20.51;47.38
10060;BME280;5069;49.306;8.636;2023-04-23T15:15:54;99288.47;;;20.44;46.81
10060;BME280;5069;49.306;8.636;2023-04-23T15:19:01;99282.84;;;20.38;47.01
10060;BME280;5069;49.306;8.636;2023-04-23T15:22:02;99278.88;;;20.42;47.58
10060;BME280;5069;49.306;8.636;2023-04-23T15:25:04;99277.47;;;20.57;46.85
10060;BME280;5069;49.306;8.636;2023-04-23T15:28:06;99273.13;;;20.56;47.16
10060;BME280;5069;49.306;8.636;2023-04-23T15:31:08;99269.84;;;20.62;46.96
10060;BME280;5069;49.306;8.636;2023-04-23T15:34:10;99266.47;;;20.50;46.33
10060;BME280;5069;49.306;8.636;2023-04-23T15:37:12;99262.25;;;20.48;46.45
10060;BME280;5069;49.306;8.636;2023-04-23T15:40:15;99267.19;;;20.43;46.46
10060;BME280;5069;49.306;8.636;2023-04-23T15:43:17;99262.25;;;20.48;47.17
10060;BME280;5069;49.306;8.636;2023-04-23T15:46:18;99261.13;;;20.50;45.51
10060;BME280;5069;49.306;8.636;2023-04-23T15:49:20;99261.56;;;20.36;46.29
10060;BME280;5069;49.306;8.636;2023-04-23T15:52:21;99265.50;;;20.42;47.81
10060;BME280;5069;49.306;8.636;2023-04-23T15:55:24;99272.41;;;20.35;47.59
10060;BME280;5069;49.306;8.636;2023-04-23T15:58:26;99272.13;;;20.38;46.93
10060;BME280;5069;49.306;8.636;2023-04-23T16:01:27;99282.19;;;20.05;47.55
10060;BME280;5069;49.306;8.636;2023-04-23T16:04:29;99287.50;;;19.86;48.08
10060;BME280;5069;49.306;8.636;2023-04-23T16:07:31;99312.88;;;19.92;49.58
10060;BME280;5069;49.306;8.636;2023-04-23T16:10:34;99377.28;;;19.79;52.73
10060;BME280;5069;49.306;8.636;2023-04-23T16:13:35;99426.00;;;18.34;61.97
10060;BME280;5069;49.306;8.636;2023-04-23T16:16:37;99447.91;;;17.03;78.92
10060;BME280;5069;49.306;8.636;2023-04-23T16:19:39;99463.09;;;16.04;97.59